sensor_id;sensor_type;location;lat;lon;timestamp;temperature;humidity
5938;DHT22;2994;51.220;4.412;2023-02-28T00:01:22;6.05;53.01
5938;DHT22;2994;51.220;4.412;2023-02-28T00:03:48;6.01;52.83
5938;DHT22;2994;51.220;4.412;2023-02-28T00:06:13;6.01;52.91
5938;DHT22;2994;51.220;4.412;2023-02-28T00:08:39;5.98;52.92
5938;DHT22;2994;51.220;4.412;2023-02-28T00:11:08;5.97;53.06
5938;DHT22;2994;51.220;4.412;2023-02-28T00:13:36;6.00;53.06
5938;DHT22;2994;51.220;4.412;2023-02-28T00:16:07;5.99;53.16
5938;DHT22;2994;51.220;4.412;2023-02-28T00:18:33;5.99;53.51
5938;DHT22;2994;51.220;4.412;2023-02-28T00:20:58;5.97;53.65
5938;DHT22;2994;51.220;4.412;2023-02-28T00:23:25;5.95;53.38
5938;DHT22;2994;51.220;4.412;2023-02-28T00:25:51;5.93;54.21
5938;DHT22;2994;51.220;4.412;2023-02-28T00:28:17;5.94;54.12
5938;DHT22;2994;51.220;4.412;2023-02-28T00:30:42;5.92;54.07
5938;DHT22;2994;51.220;4.412;2023-02-28T00:33:08;5.91;54.65
5938;DHT22;2994;51.220;4.412;2023-02-28T00:35:33;5.92;53.67
5938;DHT22;2994;51.220;4.412;2023-02-28T00:37:59;5.82;53.97
5938;DHT22;2994;51.220;4.412;2023-02-28T00:40:24;5.83;53.84
5938;DHT22;2994;51.220;4.412;2023-02-28T00:42:50;5.79;54.36
5938;DHT22;2994;51.220;4.412;2023-02-28T00:45:15;5.83;54.34
5938;DHT22;2994;51.220;4.412;2023-02-28T00:47:40;5.79;55.20
5938;DHT22;2994;51.220;4.412;2023-02-28T00:50:07;5.82;54.91
5938;DHT22;2994;51.220;4.412;2023-02-28T00:52:34;5.81;54.55
5938;DHT22;2994;51.220;4.412;2023-02-28T00:54:59;5.81;54.61
5938;DHT22;2994;51.220;4.412;2023-02-28T00:57:25;5.83;54.85
5938;DHT22;2994;51.220;4.412;2023-02-28T00:59:51;5.82;54.46
5938;DHT22;2994;51.220;4.412;2023-02-28T01:02:19;5.79;54.43
5938;DHT22;2994;51.220;4.412;2023-02-28T01:04:45;5.77;54.59
5938;DHT22;2994;51.220;4.412;2023-02-28T01:07:11;5.77;54.31
5938;DHT22;2994;51.220;4.412;2023-02-28T01:09:36;5.72;54.49
5938;DHT22;2994;51.220;4.412;2023-02-28T01:12:02;5.74;54.62
5938;DHT22;2994;51.220;4.412;2023-02-28T01:14:28;5.72;55.49
5938;DHT22;2994;51.220;4.412;2023-02-28T01:16:53;5.72;55.05
5938;DHT22;2994;51.220;4.412;2023-02-28T01:19:18;5.69;55.26
5938;DHT22;2994;51.220;4.412;2023-02-28T01:21:44;5.72;55.44
5938;DHT22;2994;51.220;4.412;2023-02-28T01:24:09;5.70;55.39
5938;DHT22;2994;51.220;4.412;2023-02-28T01:26:35;5.75;55.28
5938;DHT22;2994;51.220;4.412;2023-02-28T01:29:00;5.75;55.71
5938;DHT22;2994;51.220;4.412;2023-02-28T01:31:26;5.71;55.82
5938;DHT22;2994;51.220;4.412;2023-02-28T01:33:51;5.70;55.42
5938;DHT22;2994;51.220;4.412;2023-02-28T01:36:22;5.71;55.08
5938;DHT22;2994;51.220;4.412;2023-02-28T01:38:48;5.69;55.39
5938;DHT22;2994;51.220;4.412;2023-02-28T01:41:17;5.69;56.03
5938;DHT22;2994;51.220;4.412;2023-02-28T01:46:09;5.68;56.00
5938;DHT22;2994;51.220;4.412;2023-02-28T01:48:40;5.70;55.30
5938;DHT22;2994;51.220;4.412;2023-02-28T01:51:32;5.71;55.64
5938;DHT22;2994;51.220;4.412;2023-02-28T01:54:11;5.75;55.13
5938;DHT22;2994;51.220;4.412;2023-02-28T01:56:43;5.67;54.83
5938;DHT22;2994;51.220;4.412;2023-02-28T01:59:09;5.63;55.05
5938;DHT22;2994;51.220;4.412;2023-02-28T02:01:35;5.62;55.00
5938;DHT22;2994;51.220;4.412;2023-02-28T02:04:02;5.62;55.35
5938;DHT22;2994;51.220;4.412;2023-02-28T02:06:33;5.62;55.10
5938;DHT22;2994;51.220;4.412;2023-02-28T02:08:59;5.60;54.97
5938;DHT22;2994;51.220;4.412;2023-02-28T02:11:25;5.60;55.66
5938;DHT22;2994;51.220;4.412;2023-02-28T02:22:59;5.49;55.49
5938;DHT22;2994;51.220;4.412;2023-02-28T02:25:32;5.46;55.36
5938;DHT22;2994;51.220;4.412;2023-02-28T02:28:16;5.48;55.78
5938;DHT22;2994;51.220;4.412;2023-02-28T02:36:27;5.43;56.19
5938;DHT22;2994;51.220;4.412;2023-02-28T02:41:43;5.45;56.12
5938;DHT22;2994;51.220;4.412;2023-02-28T02:44:18;5.40;55.61
5938;DHT22;2994;51.220;4.412;2023-02-28T02:46:48;5.40;56.23
5938;DHT22;2994;51.220;4.412;2023-02-28T02:49:19;5.40;56.85
5938;DHT22;2994;51.220;4.412;2023-02-28T02:51:47;5.39;55.94
5938;DHT22;2994;51.220;4.412;2023-02-28T02:54:28;5.37;55.64
5938;DHT22;2994;51.220;4.412;2023-02-28T02:56:57;5.39;55.68
5938;DHT22;2994;51.220;4.412;2023-02-28T02:59:24;5.39;56.41
5938;DHT22;2994;51.220;4.412;2023-02-28T03:01:53;5.38;56.29
5938;DHT22;2994;51.220;4.412;2023-02-28T03:04:22;5.39;56.55
5938;DHT22;2994;51.220;4.412;2023-02-28T03:06:50;5.41;56.63
5938;DHT22;2994;51.220;4.412;2023-02-28T03:09:20;5.40;56.01
5938;DHT22;2994;51.220;4.412;2023-02-28T03:11:46;5.37;56.17
5938;DHT22;2994;51.220;4.412;2023-02-28T03:14:33;5.36;56.07
5938;DHT22;2994;51.220;4.412;2023-02-28T03:20:07;5.32;56.47
5938;DHT22;2994;51.220;4.412;2023-02-28T03:22:56;5.30;56.21
5938;DHT22;2994;51.220;4.412;2023-02-28T03:25:35;5.25;57.32
5938;DHT22;2994;51.220;4.412;2023-02-28T03:28:18;5.27;57.15
5938;DHT22;2994;51.220;4.412;2023-02-28T03:30:49;5.35;56.70
5938;DHT22;2994;51.220;4.412;2023-02-28T03:33:31;5.35;56.37
5938;DHT22;2994;51.220;4.412;2023-02-28T03:36:02;5.36;56.34
5938;DHT22;2994;51.220;4.412;2023-02-28T03:38:39;5.38;56.40
5938;DHT22;2994;51.220;4.412;2023-02-28T03:44:14;5.38;56.20
5938;DHT22;2994;51.220;4.412;2023-02-28T03:46:46;5.38;56.57
5938;DHT22;2994;51.220;4.412;2023-02-28T03:49:23;5.43;56.62
5938;DHT22;2994;51.220;4.412;2023-02-28T03:51:50;5.47;56.26
5938;DHT22;2994;51.220;4.412;2023-02-28T03:54:19;5.52;56.03
5938;DHT22;2994;51.220;4.412;2023-02-28T03:56:56;5.48;56.03
5938;DHT22;2994;51.220;4.412;2023-02-28T03:59:29;5.49;56.80
5938;DHT22;2994;51.220;4.412;2023-02-28T04:01:57;5.51;57.05
5938;DHT22;2994;51.220;4.412;2023-02-28T04:04:24;5.56;56.55
5938;DHT22;2994;51.220;4.412;2023-02-28T04:06:50;5.54;56.68
5938;DHT22;2994;51.220;4.412;2023-02-28T04:09:16;5.56;56.74
5938;DHT22;2994;51.220;4.412;2023-02-28T04:11:50;5.56;56.33
5938;DHT22;2994;51.220;4.412;2023-02-28T04:14:17;5.53;56.10
5938;DHT22;2994;51.220;4.412;2023-02-28T04:16:43;5.60;56.33
5938;DHT22;2994;51.220;4.412;2023-02-28T04:19:11;5.56;56.25
5938;DHT22;2994;51.220;4.412;2023-02-28T04:21:48;5.56;56.93
5938;DHT22;2994;51.220;4.412;2023-02-28T04:24:16;5.61;56.86
5938;DHT22;2994;51.220;4.412;2023-02-28T04:26:47;5.62;56.36
5938;DHT22;2994;51.220;4.412;2023-02-28T04:29:18;5.64;56.16
5938;DHT22;2994;51.220;4.412;2023-02-28T04:31:44;5.56;57.13
5938;DHT22;2994;51.220;4.412;2023-02-28T04:34:10;5.66;56.39
5938;DHT22;2994;51.220;4.412;2023-02-28T04:36:35;5.62;56.45
5938;DHT22;2994;51.220;4.412;2023-02-28T04:39:01;5.59;56.97
5938;DHT22;2994;51.220;4.412;2023-02-28T04:41:26;5.64;57.01
5938;DHT22;2994;51.220;4.412;2023-02-28T04:43:52;5.65;57.00
5938;DHT22;2994;51.220;4.412;2023-02-28T04:46:19;5.64;56.47
5938;DHT22;2994;51.220;4.412;2023-02-28T04:48:45;5.67;56.38
5938;DHT22;2994;51.220;4.412;2023-02-28T04:51:13;5.62;56.26
5938;DHT22;2994;51.220;4.412;2023-02-28T04:53:40;5.62;56.75
5938;DHT22;2994;51.220;4.412;2023-02-28T04:56:07;5.64;56.45
5938;DHT22;2994;51.220;4.412;2023-02-28T04:58:33;5.67;56.81
5938;DHT22;2994;51.220;4.412;2023-02-28T05:01:03;5.70;56.61
5938;DHT22;2994;51.220;4.412;2023-02-28T05:03:30;5.67;57.30
5938;DHT22;2994;51.220;4.412;2023-02-28T05:05:55;5.69;57.12
5938;DHT22;2994;51.220;4.412;2023-02-28T05:08:20;5.69;56.64
5938;DHT22;2994;51.220;4.412;2023-02-28T05:10:46;5.67;56.80
5938;DHT22;2994;51.220;4.412;2023-02-28T05:13:12;5.67;57.60
5938;DHT22;2994;51.220;4.412;2023-02-28T05:15:38;5.71;57.59
5938;DHT22;2994;51.220;4.412;2023-02-28T05:18:03;5.72;57.37
5938;DHT22;2994;51.220;4.412;2023-02-28T05:20:29;5.76;57.18
5938;DHT22;2994;51.220;4.412;2023-02-28T05:22:54;5.78;57.16
5938;DHT22;2994;51.220;4.412;2023-02-28T05:25:21;5.77;56.89
5938;DHT22;2994;51.220;4.412;2023-02-28T05:27:48;5.75;57.06
5938;DHT22;2994;51.220;4.412;2023-02-28T05:30:14;5.79;56.68
5938;DHT22;2994;51.220;4.412;2023-02-28T05:32:40;5.84;56.03
5938;DHT22;2994;51.220;4.412;2023-02-28T05:35:11;5.82;55.85
5938;DHT22;2994;51.220;4.412;2023-02-28T05:37:38;5.84;56.19
5938;DHT22;2994;51.220;4.412;2023-02-28T05:40:04;5.80;56.56
5938;DHT22;2994;51.220;4.412;2023-02-28T05:42:32;5.78;56.90
5938;DHT22;2994;51.220;4.412;2023-02-28T05:44:58;5.83;56.59
5938;DHT22;2994;51.220;4.412;2023-02-28T05:47:24;5.87;55.82
5938;DHT22;2994;51.220;4.412;2023-02-28T05:49:49;5.84;56.32
5938;DHT22;2994;51.220;4.412;2023-02-28T05:52:15;5.91;55.53
5938;DHT22;2994;51.220;4.412;2023-02-28T05:54:40;5.87;55.72
5938;DHT22;2994;51.220;4.412;2023-02-28T05:57:06;5.90;56.10
5938;DHT22;2994;51.220;4.412;2023-02-28T05:59:32;5.92;55.58
5938;DHT22;2994;51.220;4.412;2023-02-28T06:01:57;5.89;55.87
5938;DHT22;2994;51.220;4.412;2023-02-28T06:04:23;5.87;56.25
5938;DHT22;2994;51.220;4.412;2023-02-28T06:06:49;5.89;55.93
5938;DHT22;2994;51.220;4.412;2023-02-28T06:09:15;5.85;56.49
5938;DHT22;2994;51.220;4.412;2023-02-28T06:11:41;5.85;56.55
5938;DHT22;2994;51.220;4.412;2023-02-28T06:14:09;5.81;56.87
5938;DHT22;2994;51.220;4.412;2023-02-28T06:16:37;5.85;56.84
5938;DHT22;2994;51.220;4.412;2023-02-28T06:19:04;5.84;57.30
5938;DHT22;2994;51.220;4.412;2023-02-28T06:21:29;5.87;57.16
5938;DHT22;2994;51.220;4.412;2023-02-28T06:23:56;5.89;56.76
5938;DHT22;2994;51.220;4.412;2023-02-28T06:26:23;5.90;57.16
5938;DHT22;2994;51.220;4.412;2023-02-28T06:28:48;5.90;56.94
5938;DHT22;2994;51.220;4.412;2023-02-28T06:31:15;5.92;57.22
5938;DHT22;2994;51.220;4.412;2023-02-28T06:33:41;5.93;56.75
5938;DHT22;2994;51.220;4.412;2023-02-28T06:36:09;5.92;56.79
5938;DHT22;2994;51.220;4.412;2023-02-28T06:38:35;5.94;56.86
5938;DHT22;2994;51.220;4.412;2023-02-28T06:41:01;5.91;56.74
5938;DHT22;2994;51.220;4.412;2023-02-28T06:43:32;5.90;56.78
5938;DHT22;2994;51.220;4.412;2023-02-28T06:45:59;5.84;57.74
5938;DHT22;2994;51.220;4.412;2023-02-28T06:48:26;5.86;57.43
5938;DHT22;2994;51.220;4.412;2023-02-28T06:50:52;5.90;56.86
5938;DHT22;2994;51.220;4.412;2023-02-28T06:53:17;5.87;56.84
5938;DHT22;2994;51.220;4.412;2023-02-28T06:55:43;5.85;56.97
5938;DHT22;2994;51.220;4.412;2023-02-28T06:58:08;5.86;56.85
5938;DHT22;2994;51.220;4.412;2023-02-28T07:00:43;5.82;56.88
5938;DHT22;2994;51.220;4.412;2023-02-28T07:03:09;5.82;56.99
5938;DHT22;2994;51.220;4.412;2023-02-28T07:05:36;5.83;57.25
5938;DHT22;2994;51.220;4.412;2023-02-28T07:08:03;5.86;57.58
5938;DHT22;2994;51.220;4.412;2023-02-28T07:10:29;5.85;57.06
5938;DHT22;2994;51.220;4.412;2023-02-28T07:12:55;5.90;57.39
5938;DHT22;2994;51.220;4.412;2023-02-28T07:15:20;5.95;57.29
5938;DHT22;2994;51.220;4.412;2023-02-28T07:17:46;5.97;57.41
5938;DHT22;2994;51.220;4.412;2023-02-28T07:20:11;5.98;56.99
5938;DHT22;2994;51.220;4.412;2023-02-28T07:22:37;5.97;57.26
5938;DHT22;2994;51.220;4.412;2023-02-28T07:25:04;6.05;56.79
5938;DHT22;2994;51.220;4.412;2023-02-28T07:27:29;6.08;56.59
5938;DHT22;2994;51.220;4.412;2023-02-28T07:29:55;6.08;56.36
5938;DHT22;2994;51.220;4.412;2023-02-28T07:32:20;6.07;56.36
5938;DHT22;2994;51.220;4.412;2023-02-28T07:34:46;6.07;56.43
5938;DHT22;2994;51.220;4.412;2023-02-28T07:37:11;6.06;56.86
5938;DHT22;2994;51.220;4.412;2023-02-28T07:39:37;6.10;57.05
5938;DHT22;2994;51.220;4.412;2023-02-28T07:42:06;6.13;56.87
5938;DHT22;2994;51.220;4.412;2023-02-28T07:44:34;6.20;57.13
5938;DHT22;2994;51.220;4.412;2023-02-28T07:47:00;6.23;56.80
5938;DHT22;2994;51.220;4.412;2023-02-28T07:49:26;6.28;56.21
5938;DHT22;2994;51.220;4.412;2023-02-28T07:51:51;6.31;55.52
5938;DHT22;2994;51.220;4.412;2023-02-28T07:54:16;6.23;56.61
5938;DHT22;2994;51.220;4.412;2023-02-28T07:56:42;6.27;55.94
5938;DHT22;2994;51.220;4.412;2023-02-28T07:59:07;6.35;55.85
5938;DHT22;2994;51.220;4.412;2023-02-28T08:01:33;6.38;55.09
5938;DHT22;2994;51.220;4.412;2023-02-28T08:03:58;6.41;55.25
5938;DHT22;2994;51.220;4.412;2023-02-28T08:06:24;6.49;55.23
5938;DHT22;2994;51.220;4.412;2023-02-28T08:08:52;6.51;55.37
5938;DHT22;2994;51.220;4.412;2023-02-28T08:11:18;6.57;53.81
5938;DHT22;2994;51.220;4.412;2023-02-28T08:13:44;6.58;54.48
5938;DHT22;2994;51.220;4.412;2023-02-28T08:16:11;6.59;54.20
5938;DHT22;2994;51.220;4.412;2023-02-28T08:18:36;6.68;53.53
5938;DHT22;2994;51.220;4.412;2023-02-28T08:21:07;6.71;53.30
5938;DHT22;2994;51.220;4.412;2023-02-28T08:23:32;6.88;51.66
5938;DHT22;2994;51.220;4.412;2023-02-28T08:25:58;6.91;52.51
5938;DHT22;2994;51.220;4.412;2023-02-28T08:28:24;6.98;50.34
5938;DHT22;2994;51.220;4.412;2023-02-28T08:30:50;6.99;49.98
5938;DHT22;2994;51.220;4.412;2023-02-28T08:33:15;7.02;50.56
5938;DHT22;2994;51.220;4.412;2023-02-28T08:35:41;7.07;49.11
5938;DHT22;2994;51.220;4.412;2023-02-28T08:38:06;7.10;47.72
5938;DHT22;2994;51.220;4.412;2023-02-28T08:40:32;7.04;47.41
5938;DHT22;2994;51.220;4.412;2023-02-28T08:42:57;7.10;46.71
5938;DHT22;2994;51.220;4.412;2023-02-28T08:45:23;7.14;46.17
5938;DHT22;2994;51.220;4.412;2023-02-28T08:47:49;7.13;45.71
5938;DHT22;2994;51.220;4.412;2023-02-28T08:50:17;7.12;45.55
5938;DHT22;2994;51.220;4.412;2023-02-28T08:52:43;7.03;45.16
5938;DHT22;2994;51.220;4.412;2023-02-28T08:55:09;7.16;44.52
5938;DHT22;2994;51.220;4.412;2023-02-28T08:57:35;7.20;45.24
5938;DHT22;2994;51.220;4.412;2023-02-28T09:00:01;7.26;44.59
5938;DHT22;2994;51.220;4.412;2023-02-28T09:02:30;7.29;43.11
5938;DHT22;2994;51.220;4.412;2023-02-28T09:04:56;7.31;42.91
5938;DHT22;2994;51.220;4.412;2023-02-28T09:07:22;7.23;44.05
5938;DHT22;2994;51.220;4.412;2023-02-28T09:09:47;7.23;43.84
5938;DHT22;2994;51.220;4.412;2023-02-28T09:12:26;7.34;42.63
5938;DHT22;2994;51.220;4.412;2023-02-28T09:14:52;7.28;42.77
5938;DHT22;2994;51.220;4.412;2023-02-28T09:17:18;6.97;42.74
5938;DHT22;2994;51.220;4.412;2023-02-28T09:19:44;6.84;43.42
5938;DHT22;2994;51.220;4.412;2023-02-28T09:22:10;6.93;42.46
5938;DHT22;2994;51.220;4.412;2023-02-28T09:24:38;7.13;40.75
5938;DHT22;2994;51.220;4.412;2023-02-28T09:27:04;7.20;41.04
5938;DHT22;2994;51.220;4.412;2023-02-28T09:29:31;7.34;41.07
5938;DHT22;2994;51.220;4.412;2023-02-28T09:31:56;7.03;42.10
5938;DHT22;2994;51.220;4.412;2023-02-28T09:34:24;7.32;40.46
5938;DHT22;2994;51.220;4.412;2023-02-28T09:36:49;7.48;41.55
5938;DHT22;2994;51.220;4.412;2023-02-28T09:39:20;7.50;40.04
5938;DHT22;2994;51.220;4.412;2023-02-28T09:41:50;7.57;40.95
5938;DHT22;2994;51.220;4.412;2023-02-28T09:44:40;7.54;42.26
5938;DHT22;2994;51.220;4.412;2023-02-28T09:47:34;7.71;40.55
5938;DHT22;2994;51.220;4.412;2023-02-28T09:52:48;7.79;41.23
5938;DHT22;2994;51.220;4.412;2023-02-28T09:55:33;7.91;41.01
5938;DHT22;2994;51.220;4.412;2023-02-28T09:58:00;7.65;40.25
5938;DHT22;2994;51.220;4.412;2023-02-28T10:00:39;7.92;38.08
5938;DHT22;2994;51.220;4.412;2023-02-28T10:05:39;7.60;36.72
5938;DHT22;2994;51.220;4.412;2023-02-28T10:08:16;7.97;38.07
5938;DHT22;2994;51.220;4.412;2023-02-28T10:10:49;7.91;38.49
5938;DHT22;2994;51.220;4.412;2023-02-28T10:13:36;7.94;37.97
5938;DHT22;2994;51.220;4.412;2023-02-28T10:16:11;7.94;37.28
5938;DHT22;2994;51.220;4.412;2023-02-28T10:18:46;7.98;38.48
5938;DHT22;2994;51.220;4.412;2023-02-28T10:21:28;7.84;39.91
5938;DHT22;2994;51.220;4.412;2023-02-28T10:24:11;7.97;36.53
5938;DHT22;2994;51.220;4.412;2023-02-28T10:26:41;8.04;38.48
5938;DHT22;2994;51.220;4.412;2023-02-28T10:29:09;7.92;37.81
5938;DHT22;2994;51.220;4.412;2023-02-28T10:31:35;7.94;35.31
5938;DHT22;2994;51.220;4.412;2023-02-28T10:34:01;7.84;34.62
5938;DHT22;2994;51.220;4.412;2023-02-28T10:36:27;7.86;34.43
5938;DHT22;2994;51.220;4.412;2023-02-28T10:38:53;7.57;35.13
5938;DHT22;2994;51.220;4.412;2023-02-28T10:41:30;7.77;36.33
5938;DHT22;2994;51.220;4.412;2023-02-28T10:44:23;7.67;33.21
5938;DHT22;2994;51.220;4.412;2023-02-28T10:46:49;7.78;34.76
5938;DHT22;2994;51.220;4.412;2023-02-28T10:49:23;7.90;33.44
5938;DHT22;2994;51.220;4.412;2023-02-28T10:51:53;7.90;35.35
5938;DHT22;2994;51.220;4.412;2023-02-28T10:54:26;7.89;34.95
5938;DHT22;2994;51.220;4.412;2023-02-28T10:57:25;7.93;34.94
5938;DHT22;2994;51.220;4.412;2023-02-28T10:59:53;7.46;34.53
5938;DHT22;2994;51.220;4.412;2023-02-28T11:02:36;7.75;35.50
5938;DHT22;2994;51.220;4.412;2023-02-28T11:05:10;7.83;35.21
5938;DHT22;2994;51.220;4.412;2023-02-28T11:07:52;7.96;33.76
5938;DHT22;2994;51.220;4.412;2023-02-28T11:10:21;7.91;32.60
5938;DHT22;2994;51.220;4.412;2023-02-28T11:12:49;7.31;34.02
5938;DHT22;2994;51.220;4.412;2023-02-28T11:15:24;7.55;33.69
5938;DHT22;2994;51.220;4.412;2023-02-28T11:17:59;7.79;33.85
5938;DHT22;2994;51.220;4.412;2023-02-28T11:20:29;7.61;34.70
5938;DHT22;2994;51.220;4.412;2023-02-28T11:22:57;7.82;34.34
5938;DHT22;2994;51.220;4.412;2023-02-28T11:25:36;7.82;32.63
5938;DHT22;2994;51.220;4.412;2023-02-28T11:28:25;7.63;33.27
5938;DHT22;2994;51.220;4.412;2023-02-28T11:33:50;7.85;32.95
5938;DHT22;2994;51.220;4.412;2023-02-28T11:36:25;7.67;30.61
5938;DHT22;2994;51.220;4.412;2023-02-28T11:38:54;7.59;31.21
5938;DHT22;2994;51.220;4.412;2023-02-28T11:44:01;7.35;32.54
5938;DHT22;2994;51.220;4.412;2023-02-28T11:46:45;7.40;32.17
5938;DHT22;2994;51.220;4.412;2023-02-28T11:49:37;7.55;32.86
5938;DHT22;2994;51.220;4.412;2023-02-28T11:52:21;7.67;31.64
5938;DHT22;2994;51.220;4.412;2023-02-28T12:05:46;8.00;30.65
5938;DHT22;2994;51.220;4.412;2023-02-28T12:11:50;8.08;31.86
5938;DHT22;2994;51.220;4.412;2023-02-28T12:16:59;8.02;31.04
5938;DHT22;2994;51.220;4.412;2023-02-28T12:23:01;8.17;29.61
5938;DHT22;2994;51.220;4.412;2023-02-28T12:25:50;8.07;32.35
5938;DHT22;2994;51.220;4.412;2023-02-28T12:28:21;8.04;30.37
5938;DHT22;2994;51.220;4.412;2023-02-28T12:30:59;8.04;29.99
5938;DHT22;2994;51.220;4.412;2023-02-28T12:33:32;7.89;31.31
5938;DHT22;2994;51.220;4.412;2023-02-28T12:36:05;7.74;30.64
5938;DHT22;2994;51.220;4.412;2023-02-28T12:38:40;8.26;28.91
5938;DHT22;2994;51.220;4.412;2023-02-28T12:41:22;8.20;29.51
5938;DHT22;2994;51.220;4.412;2023-02-28T12:43:58;7.92;31.69
5938;DHT22;2994;51.220;4.412;2023-02-28T12:46:38;8.17;30.54
5938;DHT22;2994;51.220;4.412;2023-02-28T12:49:10;7.88;30.29
5938;DHT22;2994;51.220;4.412;2023-02-28T12:51:38;8.03;29.64
5938;DHT22;2994;51.220;4.412;2023-02-28T12:56:48;8.23;31.74
5938;DHT22;2994;51.220;4.412;2023-02-28T12:59:30;8.28;29.53
5938;DHT22;2994;51.220;4.412;2023-02-28T13:09:32;8.02;30.02
5938;DHT22;2994;51.220;4.412;2023-02-28T13:11:58;7.84;29.82
5938;DHT22;2994;51.220;4.412;2023-02-28T13:14:28;7.89;30.16
5938;DHT22;2994;51.220;4.412;2023-02-28T13:19:26;8.26;29.98
5938;DHT22;2994;51.220;4.412;2023-02-28T13:21:52;8.08;32.38
5938;DHT22;2994;51.220;4.412;2023-02-28T13:29:31;7.98;32.51
5938;DHT22;2994;51.220;4.412;2023-02-28T13:39:55;8.03;30.66
5938;DHT22;2994;51.220;4.412;2023-02-28T13:50:32;8.41;31.12
5938;DHT22;2994;51.220;4.412;2023-02-28T13:56:00;8.57;31.08
5938;DHT22;2994;51.220;4.412;2023-02-28T14:01:32;8.46;31.09
5938;DHT22;2994;51.220;4.412;2023-02-28T14:06:53;8.20;31.61
5938;DHT22;2994;51.220;4.412;2023-02-28T14:09:38;8.41;31.64
5938;DHT22;2994;51.220;4.412;2023-02-28T14:17:59;8.59;31.67
5938;DHT22;2994;51.220;4.412;2023-02-28T14:20:29;8.53;32.22
5938;DHT22;2994;51.220;4.412;2023-02-28T14:26:13;8.43;32.35
5938;DHT22;2994;51.220;4.412;2023-02-28T14:31:32;8.67;31.16
5938;DHT22;2994;51.220;4.412;2023-02-28T14:34:37;8.64;31.84
5938;DHT22;2994;51.220;4.412;2023-02-28T14:37:09;8.67;32.36
5938;DHT22;2994;51.220;4.412;2023-02-28T14:39:36;8.62;32.66
5938;DHT22;2994;51.220;4.412;2023-02-28T14:42:02;8.50;32.79
5938;DHT22;2994;51.220;4.412;2023-02-28T14:44:30;8.45;32.60
5938;DHT22;2994;51.220;4.412;2023-02-28T14:46:58;8.47;32.41
5938;DHT22;2994;51.220;4.412;2023-02-28T14:49:29;8.59;32.26
5938;DHT22;2994;51.220;4.412;2023-02-28T14:52:15;8.46;34.43
5938;DHT22;2994;51.220;4.412;2023-02-28T14:54:41;8.60;32.28
5938;DHT22;2994;51.220;4.412;2023-02-28T14:57:23;8.60;32.04
5938;DHT22;2994;51.220;4.412;2023-02-28T15:00:01;8.56;31.97
5938;DHT22;2994;51.220;4.412;2023-02-28T15:02:31;8.55;31.74
5938;DHT22;2994;51.220;4.412;2023-02-28T15:05:01;8.34;33.42
5938;DHT22;2994;51.220;4.412;2023-02-28T15:07:27;8.41;33.00
5938;DHT22;2994;51.220;4.412;2023-02-28T15:10:18;8.49;32.64
5938;DHT22;2994;51.220;4.412;2023-02-28T15:12:51;8.53;32.42
5938;DHT22;2994;51.220;4.412;2023-02-28T15:15:18;8.67;31.58
5938;DHT22;2994;51.220;4.412;2023-02-28T15:17:49;8.63;33.59
5938;DHT22;2994;51.220;4.412;2023-02-28T15:20:16;8.53;34.09
5938;DHT22;2994;51.220;4.412;2023-02-28T15:22:42;8.74;32.67
5938;DHT22;2994;51.220;4.412;2023-02-28T15:25:13;8.72;33.15
5938;DHT22;2994;51.220;4.412;2023-02-28T15:27:45;8.55;32.36
5938;DHT22;2994;51.220;4.412;2023-02-28T15:30:20;8.75;33.39
5938;DHT22;2994;51.220;4.412;2023-02-28T15:33:17;8.79;33.08
5938;DHT22;2994;51.220;4.412;2023-02-28T15:35:43;8.71;32.02
5938;DHT22;2994;51.220;4.412;2023-02-28T15:38:18;8.60;32.91
5938;DHT22;2994;51.220;4.412;2023-02-28T15:40:55;8.66;32.48
5938;DHT22;2994;51.220;4.412;2023-02-28T15:46:11;8.62;35.11
5938;DHT22;2994;51.220;4.412;2023-02-28T15:48:55;8.55;33.31
5938;DHT22;2994;51.220;4.412;2023-02-28T15:51:34;8.64;33.97
5938;DHT22;2994;51.220;4.412;2023-02-28T15:54:04;8.62;35.05
5938;DHT22;2994;51.220;4.412;2023-02-28T15:56:37;8.67;33.17
5938;DHT22;2994;51.220;4.412;2023-02-28T15:59:06;8.65;34.69
5938;DHT22;2994;51.220;4.412;2023-02-28T16:01:34;8.67;34.01
5938;DHT22;2994;51.220;4.412;2023-02-28T16:04:03;8.74;32.60
5938;DHT22;2994;51.220;4.412;2023-02-28T16:07:01;8.73;32.33
5938;DHT22;2994;51.220;4.412;2023-02-28T16:09:26;8.56;32.67
5938;DHT22;2994;51.220;4.412;2023-02-28T16:11:54;8.55;33.55
5938;DHT22;2994;51.220;4.412;2023-02-28T16:14:23;8.56;33.38
5938;DHT22;2994;51.220;4.412;2023-02-28T16:16:53;8.65;33.38
5938;DHT22;2994;51.220;4.412;2023-02-28T16:19:19;8.64;33.18
5938;DHT22;2994;51.220;4.412;2023-02-28T16:21:45;8.61;33.47
5938;DHT22;2994;51.220;4.412;2023-02-28T16:24:11;8.46;34.06
5938;DHT22;2994;51.220;4.412;2023-02-28T16:26:39;8.59;32.54
5938;DHT22;2994;51.220;4.412;2023-02-28T16:29:05;8.72;31.80
5938;DHT22;2994;51.220;4.412;2023-02-28T16:31:35;8.57;32.99
5938;DHT22;2994;51.220;4.412;2023-02-28T16:34:02;8.49;35.78
5938;DHT22;2994;51.220;4.412;2023-02-28T16:36:29;8.48;35.50
5938;DHT22;2994;51.220;4.412;2023-02-28T16:38:54;8.19;34.22
5938;DHT22;2994;51.220;4.412;2023-02-28T16:41:27;8.23;35.08
5938;DHT22;2994;51.220;4.412;2023-02-28T16:43:54;8.39;33.99
5938;DHT22;2994;51.220;4.412;2023-02-28T16:46:29;8.44;33.99
5938;DHT22;2994;51.220;4.412;2023-02-28T16:48:55;8.42;34.43
5938;DHT22;2994;51.220;4.412;2023-02-28T16:51:21;8.44;34.77
5938;DHT22;2994;51.220;4.412;2023-02-28T16:53:47;8.44;35.60
5938;DHT22;2994;51.220;4.412;2023-02-28T16:56:23;8.48;33.47
5938;DHT22;2994;51.220;4.412;2023-02-28T16:58:50;8.43;34.79
5938;DHT22;2994;51.220;4.412;2023-02-28T17:01:17;8.44;34.05
5938;DHT22;2994;51.220;4.412;2023-02-28T17:03:47;8.44;34.37
5938;DHT22;2994;51.220;4.412;2023-02-28T17:06:29;8.42;35.62
5938;DHT22;2994;51.220;4.412;2023-02-28T17:08:55;8.41;35.85
5938;DHT22;2994;51.220;4.412;2023-02-28T17:11:21;8.36;36.71
5938;DHT22;2994;51.220;4.412;2023-02-28T17:13:47;8.36;35.21
5938;DHT22;2994;51.220;4.412;2023-02-28T17:16:25;8.33;36.53
5938;DHT22;2994;51.220;4.412;2023-02-28T17:18:53;8.34;36.00
5938;DHT22;2994;51.220;4.412;2023-02-28T17:21:19;8.29;35.16
5938;DHT22;2994;51.220;4.412;2023-02-28T17:23:44;8.36;34.62
5938;DHT22;2994;51.220;4.412;2023-02-28T17:26:15;8.33;35.17
5938;DHT22;2994;51.220;4.412;2023-02-28T17:28:43;8.31;34.76
5938;DHT22;2994;51.220;4.412;2023-02-28T17:31:09;8.29;34.55
5938;DHT22;2994;51.220;4.412;2023-02-28T17:33:34;8.26;35.30
5938;DHT22;2994;51.220;4.412;2023-02-28T17:36:00;8.24;35.25
5938;DHT22;2994;51.220;4.412;2023-02-28T17:38:25;8.22;35.81
5938;DHT22;2994;51.220;4.412;2023-02-28T17:40:51;8.21;36.02
5938;DHT22;2994;51.220;4.412;2023-02-28T17:43:22;8.08;36.48
5938;DHT22;2994;51.220;4.412;2023-02-28T17:45:48;8.16;35.84
5938;DHT22;2994;51.220;4.412;2023-02-28T17:48:13;8.13;35.96
5938;DHT22;2994;51.220;4.412;2023-02-28T17:50:39;8.09;36.28
5938;DHT22;2994;51.220;4.412;2023-02-28T17:53:04;8.08;37.23
5938;DHT22;2994;51.220;4.412;2023-02-28T17:55:30;8.08;37.25
5938;DHT22;2994;51.220;4.412;2023-02-28T17:57:55;8.06;35.92
5938;DHT22;2994;51.220;4.412;2023-02-28T18:00:21;8.04;36.72
5938;DHT22;2994;51.220;4.412;2023-02-28T18:02:49;8.03;36.72
5938;DHT22;2994;51.220;4.412;2023-02-28T18:05:14;8.01;37.40
5938;DHT22;2994;51.220;4.412;2023-02-28T18:07:40;8.03;36.53
5938;DHT22;2994;51.220;4.412;2023-02-28T18:10:17;8.01;36.98
5938;DHT22;2994;51.220;4.412;2023-02-28T18:12:46;7.99;37.85
5938;DHT22;2994;51.220;4.412;2023-02-28T18:15:11;7.97;38.40
5938;DHT22;2994;51.220;4.412;2023-02-28T18:17:37;7.99;37.30
5938;DHT22;2994;51.220;4.412;2023-02-28T18:20:03;7.92;38.65
5938;DHT22;2994;51.220;4.412;2023-02-28T18:22:30;7.92;37.11
5938;DHT22;2994;51.220;4.412;2023-02-28T18:24:55;7.88;37.83
5938;DHT22;2994;51.220;4.412;2023-02-28T18:27:21;7.88;37.93